sensor_id;sensor_type;location;lat;lon;timestamp;P1;durP1;ratioP1;P2;durP2;ratioP2
3066;SDS011;1544;48.834;9.194;2024-02-28T00:00:13;20.20;;;12.90;;
3066;SDS011;1544;48.834;9.194;2024-02-28T00:02:50;19.90;;;12.20;;
3066;SDS011;1544;48.834;9.194;2024-02-28T00:05:26;17.30;;;12.17;;
3066;SDS011;1544;48.834;9.194;2024-02-28T00:08:02;18.03;;;11.80;;
3066;SDS011;1544;48.834;9.194;2024-02-28T00:10:39;20.00;;;12.70;;
3066;SDS011;1544;48.834;9.194;2024-02-28T00:13:15;19.20;;;13.60;;
3066;SDS011;1544;48.834;9.194;2024-02-28T00:15:51;18.57;;;12.47;;
3066;SDS011;1544;48.834;9.194;2024-02-28T00:18:27;18.23;;;12.70;;
3066;SDS011;1544;48.834;9.194;2024-02-28T00:21:03;15.93;;;11.53;;
3066;SDS011;1544;48.834;9.194;2024-02-28T00:23:39;16.27;;;13.50;;
3066;SDS011;1544;48.834;9.194;2024-02-28T00:26:15;18.73;;;13.60;;
3066;SDS011;1544;48.834;9.194;2024-02-28T00:28:51;20.67;;;13.10;;
3066;SDS011;1544;48.834;9.194;2024-02-28T00:31:27;25.47;;;14.20;;
3066;SDS011;1544;48.834;9.194;2024-02-28T00:34:04;21.47;;;13.20;;
3066;SDS011;1544;48.834;9.194;2024-02-28T00:36:40;19.50;;;13.80;;
3066;SDS011;1544;48.834;9.194;2024-02-28T00:39:29;21.10;;;12.73;;
3066;SDS011;1544;48.834;9.194;2024-02-28T00:42:05;16.63;;;12.10;;
3066;SDS011;1544;48.834;9.194;2024-02-28T00:44:41;17.97;;;13.17;;
3066;SDS011;1544;48.834;9.194;2024-02-28T00:47:17;17.23;;;12.30;;
3066;SDS011;1544;48.834;9.194;2024-02-28T00:49:53;22.67;;;13.80;;
3066;SDS011;1544;48.834;9.194;2024-02-28T00:52:29;21.70;;;14.13;;
3066;SDS011;1544;48.834;9.194;2024-02-28T00:55:07;20.57;;;13.83;;
3066;SDS011;1544;48.834;9.194;2024-02-28T00:57:43;22.17;;;14.20;;
3066;SDS011;1544;48.834;9.194;2024-02-28T01:00:19;22.07;;;14.00;;
3066;SDS011;1544;48.834;9.194;2024-02-28T01:02:55;24.47;;;13.93;;
3066;SDS011;1544;48.834;9.194;2024-02-28T01:05:31;21.27;;;14.43;;
3066;SDS011;1544;48.834;9.194;2024-02-28T01:08:08;21.20;;;14.17;;
3066;SDS011;1544;48.834;9.194;2024-02-28T01:10:44;22.30;;;14.80;;
3066;SDS011;1544;48.834;9.194;2024-02-28T01:13:21;24.23;;;14.67;;
3066;SDS011;1544;48.834;9.194;2024-02-28T01:15:57;22.03;;;14.60;;
3066;SDS011;1544;48.834;9.194;2024-02-28T01:18:35;23.83;;;13.37;;
3066;SDS011;1544;48.834;9.194;2024-02-28T01:21:11;19.70;;;13.90;;
3066;SDS011;1544;48.834;9.194;2024-02-28T01:23:47;20.40;;;13.53;;
3066;SDS011;1544;48.834;9.194;2024-02-28T01:26:23;25.30;;;14.80;;
3066;SDS011;1544;48.834;9.194;2024-02-28T01:28:59;25.90;;;14.63;;
3066;SDS011;1544;48.834;9.194;2024-02-28T01:31:35;21.37;;;13.60;;
3066;SDS011;1544;48.834;9.194;2024-02-28T01:34:11;23.97;;;14.67;;
3066;SDS011;1544;48.834;9.194;2024-02-28T01:36:47;18.80;;;13.60;;
3066;SDS011;1544;48.834;9.194;2024-02-28T01:39:24;21.00;;;14.20;;
3066;SDS011;1544;48.834;9.194;2024-02-28T01:42:00;19.13;;;14.13;;
3066;SDS011;1544;48.834;9.194;2024-02-28T01:44:38;24.60;;;15.97;;
3066;SDS011;1544;48.834;9.194;2024-02-28T01:47:20;23.70;;;15.07;;
3066;SDS011;1544;48.834;9.194;2024-02-28T01:49:56;22.17;;;14.47;;
3066;SDS011;1544;48.834;9.194;2024-02-28T01:52:32;24.40;;;14.70;;
3066;SDS011;1544;48.834;9.194;2024-02-28T01:55:08;21.90;;;14.83;;
3066;SDS011;1544;48.834;9.194;2024-02-28T01:57:44;19.40;;;13.50;;
3066;SDS011;1544;48.834;9.194;2024-02-28T02:00:21;22.80;;;13.43;;
3066;SDS011;1544;48.834;9.194;2024-02-28T02:02:58;22.77;;;14.13;;
3066;SDS011;1544;48.834;9.194;2024-02-28T02:05:36;20.97;;;14.60;;
3066;SDS011;1544;48.834;9.194;2024-02-28T02:08:12;24.33;;;14.70;;
3066;SDS011;1544;48.834;9.194;2024-02-28T02:10:48;24.77;;;14.73;;
3066;SDS011;1544;48.834;9.194;2024-02-28T02:13:25;19.70;;;12.83;;
3066;SDS011;1544;48.834;9.194;2024-02-28T02:16:01;21.30;;;14.40;;
3066;SDS011;1544;48.834;9.194;2024-02-28T02:18:37;22.80;;;14.83;;
3066;SDS011;1544;48.834;9.194;2024-02-28T02:21:15;21.80;;;13.57;;
3066;SDS011;1544;48.834;9.194;2024-02-28T02:23:54;19.60;;;13.10;;
3066;SDS011;1544;48.834;9.194;2024-02-28T02:26:29;15.73;;;11.77;;
3066;SDS011;1544;48.834;9.194;2024-02-28T02:29:05;17.97;;;12.77;;
3066;SDS011;1544;48.834;9.194;2024-02-28T02:31:43;18.80;;;13.23;;
3066;SDS011;1544;48.834;9.194;2024-02-28T02:34:19;17.90;;;12.17;;
3066;SDS011;1544;48.834;9.194;2024-02-28T02:36:55;18.30;;;13.80;;
3066;SDS011;1544;48.834;9.194;2024-02-28T02:39:31;15.00;;;11.83;;
3066;SDS011;1544;48.834;9.194;2024-02-28T02:42:07;20.47;;;13.20;;
3066;SDS011;1544;48.834;9.194;2024-02-28T02:44:43;16.83;;;10.73;;
3066;SDS011;1544;48.834;9.194;2024-02-28T02:47:19;21.23;;;12.40;;
3066;SDS011;1544;48.834;9.194;2024-02-28T02:49:55;20.97;;;12.50;;
3066;SDS011;1544;48.834;9.194;2024-02-28T02:52:31;19.97;;;13.30;;
3066;SDS011;1544;48.834;9.194;2024-02-28T02:55:07;18.53;;;12.70;;
3066;SDS011;1544;48.834;9.194;2024-02-28T02:57:43;20.17;;;13.00;;
3066;SDS011;1544;48.834;9.194;2024-02-28T03:00:20;23.10;;;13.73;;
3066;SDS011;1544;48.834;9.194;2024-02-28T03:02:56;21.80;;;12.17;;
3066;SDS011;1544;48.834;9.194;2024-02-28T03:05:32;20.50;;;13.50;;
3066;SDS011;1544;48.834;9.194;2024-02-28T03:08:08;22.13;;;14.47;;
3066;SDS011;1544;48.834;9.194;2024-02-28T03:10:44;21.10;;;13.17;;
3066;SDS011;1544;48.834;9.194;2024-02-28T03:13:20;20.07;;;13.63;;
3066;SDS011;1544;48.834;9.194;2024-02-28T03:15:57;18.77;;;12.47;;
3066;SDS011;1544;48.834;9.194;2024-02-28T03:18:33;22.23;;;14.40;;
3066;SDS011;1544;48.834;9.194;2024-02-28T03:21:09;21.20;;;13.30;;
3066;SDS011;1544;48.834;9.194;2024-02-28T03:23:46;26.03;;;15.30;;
3066;SDS011;1544;48.834;9.194;2024-02-28T03:26:22;19.90;;;12.63;;
3066;SDS011;1544;48.834;9.194;2024-02-28T03:28:58;19.47;;;14.30;;
3066;SDS011;1544;48.834;9.194;2024-02-28T03:31:34;16.13;;;11.27;;
3066;SDS011;1544;48.834;9.194;2024-02-28T03:34:10;20.70;;;13.67;;
3066;SDS011;1544;48.834;9.194;2024-02-28T03:36:46;17.90;;;11.90;;
3066;SDS011;1544;48.834;9.194;2024-02-28T03:39:23;23.43;;;13.03;;
3066;SDS011;1544;48.834;9.194;2024-02-28T03:41:59;17.50;;;12.80;;
3066;SDS011;1544;48.834;9.194;2024-02-28T03:44:35;16.43;;;12.40;;
3066;SDS011;1544;48.834;9.194;2024-02-28T03:47:11;19.10;;;13.10;;
3066;SDS011;1544;48.834;9.194;2024-02-28T03:49:46;16.50;;;11.73;;
3066;SDS011;1544;48.834;9.194;2024-02-28T03:52:23;16.87;;;11.03;;
3066;SDS011;1544;48.834;9.194;2024-02-28T03:54:59;20.50;;;12.93;;
3066;SDS011;1544;48.834;9.194;2024-02-28T03:57:35;19.27;;;12.13;;
3066;SDS011;1544;48.834;9.194;2024-02-28T04:00:11;18.23;;;12.10;;
3066;SDS011;1544;48.834;9.194;2024-02-28T04:02:48;19.87;;;13.20;;
3066;SDS011;1544;48.834;9.194;2024-02-28T04:05:24;19.63;;;13.30;;
3066;SDS011;1544;48.834;9.194;2024-02-28T04:08:00;22.17;;;13.07;;
3066;SDS011;1544;48.834;9.194;2024-02-28T04:10:36;18.93;;;13.60;;
3066;SDS011;1544;48.834;9.194;2024-02-28T04:13:12;21.47;;;13.03;;
3066;SDS011;1544;48.834;9.194;2024-02-28T04:15:48;18.23;;;12.60;;
3066;SDS011;1544;48.834;9.194;2024-02-28T04:18:24;21.03;;;12.77;;
3066;SDS011;1544;48.834;9.194;2024-02-28T04:21:00;19.50;;;12.37;;
3066;SDS011;1544;48.834;9.194;2024-02-28T04:23:35;18.50;;;12.07;;
3066;SDS011;1544;48.834;9.194;2024-02-28T04:26:13;20.23;;;12.63;;
3066;SDS011;1544;48.834;9.194;2024-02-28T04:28:49;17.33;;;12.23;;
3066;SDS011;1544;48.834;9.194;2024-02-28T04:31:25;19.20;;;11.47;;
3066;SDS011;1544;48.834;9.194;2024-02-28T04:34:01;18.97;;;11.97;;
3066;SDS011;1544;48.834;9.194;2024-02-28T04:36:37;21.57;;;14.50;;
3066;SDS011;1544;48.834;9.194;2024-02-28T04:39:13;19.30;;;12.90;;
3066;SDS011;1544;48.834;9.194;2024-02-28T04:41:49;20.70;;;12.80;;
3066;SDS011;1544;48.834;9.194;2024-02-28T04:44:25;16.20;;;11.93;;
3066;SDS011;1544;48.834;9.194;2024-02-28T04:47:01;24.23;;;14.10;;
3066;SDS011;1544;48.834;9.194;2024-02-28T04:49:38;22.57;;;12.93;;
3066;SDS011;1544;48.834;9.194;2024-02-28T04:52:14;19.60;;;13.30;;
3066;SDS011;1544;48.834;9.194;2024-02-28T04:54:50;20.03;;;12.70;;
3066;SDS011;1544;48.834;9.194;2024-02-28T04:57:27;19.70;;;13.30;;
3066;SDS011;1544;48.834;9.194;2024-02-28T05:00:03;20.57;;;13.63;;
3066;SDS011;1544;48.834;9.194;2024-02-28T05:02:40;18.77;;;13.07;;
3066;SDS011;1544;48.834;9.194;2024-02-28T05:05:16;20.23;;;13.10;;
3066;SDS011;1544;48.834;9.194;2024-02-28T05:07:52;23.50;;;13.70;;
3066;SDS011;1544;48.834;9.194;2024-02-28T05:10:28;20.33;;;12.53;;
3066;SDS011;1544;48.834;9.194;2024-02-28T05:13:04;22.83;;;14.37;;
3066;SDS011;1544;48.834;9.194;2024-02-28T05:15:40;20.53;;;13.90;;
3066;SDS011;1544;48.834;9.194;2024-02-28T05:18:17;22.40;;;13.07;;
3066;SDS011;1544;48.834;9.194;2024-02-28T05:20:53;20.27;;;13.93;;
3066;SDS011;1544;48.834;9.194;2024-02-28T05:23:30;18.20;;;12.80;;
3066;SDS011;1544;48.834;9.194;2024-02-28T05:26:06;19.30;;;13.73;;
3066;SDS011;1544;48.834;9.194;2024-02-28T05:28:42;21.70;;;14.33;;
3066;SDS011;1544;48.834;9.194;2024-02-28T05:31:22;23.70;;;13.70;;
3066;SDS011;1544;48.834;9.194;2024-02-28T05:34:00;21.77;;;13.67;;
3066;SDS011;1544;48.834;9.194;2024-02-28T05:36:40;21.57;;;14.30;;
3066;SDS011;1544;48.834;9.194;2024-02-28T05:39:16;21.07;;;14.13;;
3066;SDS011;1544;48.834;9.194;2024-02-28T05:41:53;19.20;;;14.40;;
3066;SDS011;1544;48.834;9.194;2024-02-28T05:44:30;18.10;;;13.30;;
3066;SDS011;1544;48.834;9.194;2024-02-28T05:47:06;19.70;;;14.17;;
3066;SDS011;1544;48.834;9.194;2024-02-28T05:49:42;19.20;;;13.50;;
3066;SDS011;1544;48.834;9.194;2024-02-28T05:52:18;19.50;;;13.63;;
3066;SDS011;1544;48.834;9.194;2024-02-28T05:54:55;18.73;;;12.63;;
3066;SDS011;1544;48.834;9.194;2024-02-28T05:57:31;19.60;;;12.20;;
3066;SDS011;1544;48.834;9.194;2024-02-28T06:00:07;17.60;;;12.50;;
3066;SDS011;1544;48.834;9.194;2024-02-28T06:02:46;19.10;;;12.70;;
3066;SDS011;1544;48.834;9.194;2024-02-28T06:05:23;22.63;;;14.17;;
3066;SDS011;1544;48.834;9.194;2024-02-28T06:07:59;18.50;;;12.93;;
3066;SDS011;1544;48.834;9.194;2024-02-28T06:10:35;21.23;;;13.23;;
3066;SDS011;1544;48.834;9.194;2024-02-28T06:13:11;23.23;;;14.40;;
3066;SDS011;1544;48.834;9.194;2024-02-28T06:15:48;29.23;;;14.67;;
3066;SDS011;1544;48.834;9.194;2024-02-28T06:18:25;21.17;;;13.67;;
3066;SDS011;1544;48.834;9.194;2024-02-28T06:21:02;20.20;;;12.80;;
3066;SDS011;1544;48.834;9.194;2024-02-28T06:23:38;19.50;;;13.10;;
3066;SDS011;1544;48.834;9.194;2024-02-28T06:26:14;22.10;;;15.00;;
3066;SDS011;1544;48.834;9.194;2024-02-28T06:28:53;18.67;;;14.20;;
3066;SDS011;1544;48.834;9.194;2024-02-28T06:31:36;20.10;;;13.70;;
3066;SDS011;1544;48.834;9.194;2024-02-28T06:34:12;23.30;;;14.20;;
3066;SDS011;1544;48.834;9.194;2024-02-28T06:36:49;24.30;;;15.60;;
3066;SDS011;1544;48.834;9.194;2024-02-28T06:39:25;22.40;;;14.43;;
3066;SDS011;1544;48.834;9.194;2024-02-28T06:42:01;23.37;;;14.90;;
3066;SDS011;1544;48.834;9.194;2024-02-28T06:44:37;21.10;;;14.30;;
3066;SDS011;1544;48.834;9.194;2024-02-28T06:47:13;23.07;;;14.00;;
3066;SDS011;1544;48.834;9.194;2024-02-28T06:49:49;24.03;;;15.50;;
3066;SDS011;1544;48.834;9.194;2024-02-28T06:52:25;21.80;;;14.90;;
3066;SDS011;1544;48.834;9.194;2024-02-28T06:55:01;21.50;;;16.03;;
3066;SDS011;1544;48.834;9.194;2024-02-28T06:57:45;22.97;;;14.73;;
3066;SDS011;1544;48.834;9.194;2024-02-28T07:00:21;22.47;;;15.07;;
3066;SDS011;1544;48.834;9.194;2024-02-28T07:02:57;25.03;;;14.30;;
3066;SDS011;1544;48.834;9.194;2024-02-28T07:05:33;19.17;;;13.57;;
3066;SDS011;1544;48.834;9.194;2024-02-28T07:08:09;20.20;;;13.90;;
3066;SDS011;1544;48.834;9.194;2024-02-28T07:10:46;22.70;;;15.20;;
3066;SDS011;1544;48.834;9.194;2024-02-28T07:13:24;21.30;;;14.13;;
3066;SDS011;1544;48.834;9.194;2024-02-28T07:16:02;24.57;;;15.13;;
3066;SDS011;1544;48.834;9.194;2024-02-28T07:18:38;23.60;;;15.70;;
3066;SDS011;1544;48.834;9.194;2024-02-28T07:21:16;22.27;;;14.27;;
3066;SDS011;1544;48.834;9.194;2024-02-28T07:23:53;20.37;;;15.00;;
3066;SDS011;1544;48.834;9.194;2024-02-28T07:26:29;24.17;;;16.00;;
3066;SDS011;1544;48.834;9.194;2024-02-28T07:29:05;24.43;;;15.90;;
3066;SDS011;1544;48.834;9.194;2024-02-28T07:31:41;25.00;;;14.70;;
3066;SDS011;1544;48.834;9.194;2024-02-28T07:34:17;20.33;;;13.33;;
3066;SDS011;1544;48.834;9.194;2024-02-28T07:36:53;22.53;;;15.83;;
3066;SDS011;1544;48.834;9.194;2024-02-28T07:39:29;20.23;;;14.20;;
3066;SDS011;1544;48.834;9.194;2024-02-28T07:42:05;19.13;;;14.43;;
3066;SDS011;1544;48.834;9.194;2024-02-28T07:44:41;21.47;;;14.07;;
3066;SDS011;1544;48.834;9.194;2024-02-28T07:47:17;22.97;;;16.00;;
3066;SDS011;1544;48.834;9.194;2024-02-28T07:49:53;21.77;;;14.60;;
3066;SDS011;1544;48.834;9.194;2024-02-28T07:52:29;23.70;;;15.43;;
3066;SDS011;1544;48.834;9.194;2024-02-28T07:55:05;25.17;;;14.23;;
3066;SDS011;1544;48.834;9.194;2024-02-28T07:57:42;22.87;;;16.30;;
3066;SDS011;1544;48.834;9.194;2024-02-28T08:00:18;21.97;;;14.90;;
3066;SDS011;1544;48.834;9.194;2024-02-28T08:02:55;22.37;;;14.77;;
3066;SDS011;1544;48.834;9.194;2024-02-28T08:05:31;25.27;;;14.93;;
3066;SDS011;1544;48.834;9.194;2024-02-28T08:08:10;26.93;;;15.57;;
3066;SDS011;1544;48.834;9.194;2024-02-28T08:10:46;23.77;;;14.67;;
3066;SDS011;1544;48.834;9.194;2024-02-28T08:13:24;23.80;;;15.50;;
3066;SDS011;1544;48.834;9.194;2024-02-28T08:16:03;25.33;;;15.57;;
3066;SDS011;1544;48.834;9.194;2024-02-28T08:18:40;25.17;;;15.10;;
3066;SDS011;1544;48.834;9.194;2024-02-28T08:21:16;24.87;;;15.30;;
3066;SDS011;1544;48.834;9.194;2024-02-28T08:23:53;25.73;;;16.23;;
3066;SDS011;1544;48.834;9.194;2024-02-28T08:26:30;22.03;;;14.67;;
3066;SDS011;1544;48.834;9.194;2024-02-28T08:29:06;24.50;;;15.30;;
3066;SDS011;1544;48.834;9.194;2024-02-28T08:31:43;22.43;;;14.90;;
3066;SDS011;1544;48.834;9.194;2024-02-28T08:34:20;19.87;;;13.73;;
3066;SDS011;1544;48.834;9.194;2024-02-28T08:36:56;21.57;;;14.23;;
3066;SDS011;1544;48.834;9.194;2024-02-28T08:39:32;26.50;;;15.33;;
3066;SDS011;1544;48.834;9.194;2024-02-28T08:42:08;24.23;;;15.63;;
3066;SDS011;1544;48.834;9.194;2024-02-28T08:44:44;21.87;;;14.13;;
3066;SDS011;1544;48.834;9.194;2024-02-28T08:47:23;23.00;;;15.50;;
3066;SDS011;1544;48.834;9.194;2024-02-28T08:50:00;24.73;;;16.03;;
3066;SDS011;1544;48.834;9.194;2024-02-28T08:52:36;21.70;;;15.20;;
3066;SDS011;1544;48.834;9.194;2024-02-28T08:55:12;23.07;;;15.73;;
3066;SDS011;1544;48.834;9.194;2024-02-28T08:57:48;22.40;;;14.47;;
3066;SDS011;1544;48.834;9.194;2024-02-28T09:00:25;22.37;;;15.57;;
3066;SDS011;1544;48.834;9.194;2024-02-28T09:03:01;26.57;;;16.10;;
3066;SDS011;1544;48.834;9.194;2024-02-28T09:05:39;25.20;;;15.87;;
3066;SDS011;1544;48.834;9.194;2024-02-28T09:08:15;25.17;;;15.17;;
3066;SDS011;1544;48.834;9.194;2024-02-28T09:10:51;20.93;;;14.23;;
3066;SDS011;1544;48.834;9.194;2024-02-28T09:13:27;24.07;;;14.53;;
3066;SDS011;1544;48.834;9.194;2024-02-28T09:16:03;18.47;;;13.00;;
3066;SDS011;1544;48.834;9.194;2024-02-28T09:18:39;19.07;;;12.77;;
3066;SDS011;1544;48.834;9.194;2024-02-28T09:21:17;20.83;;;16.00;;
3066;SDS011;1544;48.834;9.194;2024-02-28T09:23:53;23.17;;;14.13;;
3066;SDS011;1544;48.834;9.194;2024-02-28T09:26:29;20.80;;;14.13;;
3066;SDS011;1544;48.834;9.194;2024-02-28T09:29:05;18.93;;;13.13;;
3066;SDS011;1544;48.834;9.194;2024-02-28T09:31:41;24.40;;;13.40;;
3066;SDS011;1544;48.834;9.194;2024-02-28T09:34:17;16.17;;;11.50;;
3066;SDS011;1544;48.834;9.194;2024-02-28T09:36:53;16.87;;;11.43;;
3066;SDS011;1544;48.834;9.194;2024-02-28T09:39:29;22.63;;;14.10;;
3066;SDS011;1544;48.834;9.194;2024-02-28T09:42:06;18.67;;;12.07;;
3066;SDS011;1544;48.834;9.194;2024-02-28T09:44:43;18.73;;;12.00;;
3066;SDS011;1544;48.834;9.194;2024-02-28T09:47:19;14.27;;;9.50;;
3066;SDS011;1544;48.834;9.194;2024-02-28T09:49:55;15.33;;;11.03;;
3066;SDS011;1544;48.834;9.194;2024-02-28T09:52:36;18.87;;;11.37;;
3066;SDS011;1544;48.834;9.194;2024-02-28T09:55:12;16.77;;;11.17;;
3066;SDS011;1544;48.834;9.194;2024-02-28T09:57:48;17.57;;;11.50;;
3066;SDS011;1544;48.834;9.194;2024-02-28T10:00:27;19.03;;;12.20;;
3066;SDS011;1544;48.834;9.194;2024-02-28T10:03:03;13.73;;;9.27;;
3066;SDS011;1544;48.834;9.194;2024-02-28T10:05:41;18.10;;;10.00;;
3066;SDS011;1544;48.834;9.194;2024-02-28T10:08:18;12.63;;;9.50;;
3066;SDS011;1544;48.834;9.194;2024-02-28T10:10:54;13.70;;;9.00;;
3066;SDS011;1544;48.834;9.194;2024-02-28T10:13:32;11.97;;;8.63;;
3066;SDS011;1544;48.834;9.194;2024-02-28T10:16:08;11.63;;;8.37;;
3066;SDS011;1544;48.834;9.194;2024-02-28T10:18:44;14.47;;;9.47;;
3066;SDS011;1544;48.834;9.194;2024-02-28T10:21:21;17.17;;;11.00;;
3066;SDS011;1544;48.834;9.194;2024-02-28T10:23:58;20.63;;;12.80;;
3066;SDS011;1544;48.834;9.194;2024-02-28T10:26:45;17.37;;;12.20;;
3066;SDS011;1544;48.834;9.194;2024-02-28T10:29:32;13.20;;;10.00;;
3066;SDS011;1544;48.834;9.194;2024-02-28T10:32:08;14.67;;;9.90;;
3066;SDS011;1544;48.834;9.194;2024-02-28T10:34:45;17.93;;;11.13;;
3066;SDS011;1544;48.834;9.194;2024-02-28T10:37:22;17.10;;;11.33;;
3066;SDS011;1544;48.834;9.194;2024-02-28T10:39:58;16.10;;;11.37;;
3066;SDS011;1544;48.834;9.194;2024-02-28T10:42:36;16.60;;;11.80;;
3066;SDS011;1544;48.834;9.194;2024-02-28T10:45:17;14.47;;;10.00;;
3066;SDS011;1544;48.834;9.194;2024-02-28T10:48:14;15.50;;;11.30;;
3066;SDS011;1544;48.834;9.194;2024-02-28T10:50:51;23.30;;;14.27;;
3066;SDS011;1544;48.834;9.194;2024-02-28T10:53:36;16.97;;;12.60;;
3066;SDS011;1544;48.834;9.194;2024-02-28T10:56:15;18.00;;;11.30;;
3066;SDS011;1544;48.834;9.194;2024-02-28T10:58:55;15.20;;;10.63;;
3066;SDS011;1544;48.834;9.194;2024-02-28T11:01:38;19.87;;;13.73;;
3066;SDS011;1544;48.834;9.194;2024-02-28T11:04:17;18.03;;;12.10;;
3066;SDS011;1544;48.834;9.194;2024-02-28T11:06:54;20.77;;;12.77;;
3066;SDS011;1544;48.834;9.194;2024-02-28T11:09:32;20.73;;;12.80;;
3066;SDS011;1544;48.834;9.194;2024-02-28T11:12:23;19.30;;;12.10;;
3066;SDS011;1544;48.834;9.194;2024-02-28T11:15:02;18.47;;;11.47;;
3066;SDS011;1544;48.834;9.194;2024-02-28T11:17:41;17.13;;;11.20;;
3066;SDS011;1544;48.834;9.194;2024-02-28T11:20:17;21.70;;;13.50;;
3066;SDS011;1544;48.834;9.194;2024-02-28T11:22:56;18.57;;;12.27;;
3066;SDS011;1544;48.834;9.194;2024-02-28T11:25:33;20.57;;;13.60;;
3066;SDS011;1544;48.834;9.194;2024-02-28T11:28:09;20.70;;;13.30;;
3066;SDS011;1544;48.834;9.194;2024-02-28T11:30:45;21.30;;;13.57;;
3066;SDS011;1544;48.834;9.194;2024-02-28T11:33:21;21.43;;;13.47;;
3066;SDS011;1544;48.834;9.194;2024-02-28T11:35:58;22.43;;;13.03;;
3066;SDS011;1544;48.834;9.194;2024-02-28T11:38:35;20.33;;;12.50;;
3066;SDS011;1544;48.834;9.194;2024-02-28T11:41:13;22.40;;;13.47;;
3066;SDS011;1544;48.834;9.194;2024-02-28T11:43:49;20.67;;;13.10;;
3066;SDS011;1544;48.834;9.194;2024-02-28T11:46:27;20.50;;;13.40;;
3066;SDS011;1544;48.834;9.194;2024-02-28T11:49:03;19.50;;;12.77;;
3066;SDS011;1544;48.834;9.194;2024-02-28T11:51:44;18.77;;;13.00;;
3066;SDS011;1544;48.834;9.194;2024-02-28T11:54:21;20.43;;;12.80;;
3066;SDS011;1544;48.834;9.194;2024-02-28T11:56:57;16.90;;;11.60;;
3066;SDS011;1544;48.834;9.194;2024-02-28T11:59:35;21.77;;;12.57;;
3066;SDS011;1544;48.834;9.194;2024-02-28T12:02:11;18.10;;;12.40;;
3066;SDS011;1544;48.834;9.194;2024-02-28T12:04:48;18.23;;;12.60;;
3066;SDS011;1544;48.834;9.194;2024-02-28T12:07:25;20.57;;;13.70;;
3066;SDS011;1544;48.834;9.194;2024-02-28T12:10:01;21.47;;;12.77;;
3066;SDS011;1544;48.834;9.194;2024-02-28T12:12:41;18.97;;;11.33;;
3066;SDS011;1544;48.834;9.194;2024-02-28T12:15:17;19.40;;;12.30;;
3066;SDS011;1544;48.834;9.194;2024-02-28T12:17:53;20.90;;;13.17;;
3066;SDS011;1544;48.834;9.194;2024-02-28T12:20:29;19.13;;;12.77;;
3066;SDS011;1544;48.834;9.194;2024-02-28T12:23:05;21.90;;;13.00;;
3066;SDS011;1544;48.834;9.194;2024-02-28T12:25:43;20.63;;;13.47;;
3066;SDS011;1544;48.834;9.194;2024-02-28T12:28:19;21.33;;;14.60;;
3066;SDS011;1544;48.834;9.194;2024-02-28T12:30:55;26.13;;;15.40;;
3066;SDS011;1544;48.834;9.194;2024-02-28T12:33:31;23.47;;;14.20;;
3066;SDS011;1544;48.834;9.194;2024-02-28T12:36:07;20.27;;;13.20;;
3066;SDS011;1544;48.834;9.194;2024-02-28T12:38:43;21.17;;;13.40;;
3066;SDS011;1544;48.834;9.194;2024-02-28T12:41:20;18.37;;;12.23;;
3066;SDS011;1544;48.834;9.194;2024-02-28T12:43:56;22.17;;;12.70;;
3066;SDS011;1544;48.834;9.194;2024-02-28T12:46:33;23.30;;;14.87;;
3066;SDS011;1544;48.834;9.194;2024-02-28T12:49:09;23.83;;;13.50;;
3066;SDS011;1544;48.834;9.194;2024-02-28T12:51:45;20.43;;;13.43;;
3066;SDS011;1544;48.834;9.194;2024-02-28T12:54:23;20.17;;;13.60;;
3066;SDS011;1544;48.834;9.194;2024-02-28T12:57:00;24.73;;;13.93;;
3066;SDS011;1544;48.834;9.194;2024-02-28T12:59:38;23.03;;;13.07;;
3066;SDS011;1544;48.834;9.194;2024-02-28T13:02:15;27.97;;;15.50;;
3066;SDS011;1544;48.834;9.194;2024-02-28T13:04:52;21.90;;;14.00;;
3066;SDS011;1544;48.834;9.194;2024-02-28T13:07:28;18.83;;;12.30;;
3066;SDS011;1544;48.834;9.194;2024-02-28T13:10:05;17.70;;;12.27;;
3066;SDS011;1544;48.834;9.194;2024-02-28T13:12:42;18.67;;;12.30;;
3066;SDS011;1544;48.834;9.194;2024-02-28T13:15:18;24.80;;;14.40;;
3066;SDS011;1544;48.834;9.194;2024-02-28T13:17:54;16.87;;;11.83;;
3066;SDS011;1544;48.834;9.194;2024-02-28T13:20:31;21.20;;;13.33;;
3066;SDS011;1544;48.834;9.194;2024-02-28T13:23:06;18.70;;;12.17;;
3066;SDS011;1544;48.834;9.194;2024-02-28T13:25:43;25.57;;;13.63;;
3066;SDS011;1544;48.834;9.194;2024-02-28T13:28:18;27.37;;;13.40;;
3066;SDS011;1544;48.834;9.194;2024-02-28T13:31:01;20.80;;;13.07;;
3066;SDS011;1544;48.834;9.194;2024-02-28T13:33:39;20.10;;;12.70;;
3066;SDS011;1544;48.834;9.194;2024-02-28T13:36:17;20.93;;;11.23;;
3066;SDS011;1544;48.834;9.194;2024-02-28T13:38:53;18.53;;;11.77;;
3066;SDS011;1544;48.834;9.194;2024-02-28T13:41:29;17.60;;;12.23;;
3066;SDS011;1544;48.834;9.194;2024-02-28T13:44:05;18.40;;;11.67;;
3066;SDS011;1544;48.834;9.194;2024-02-28T13:46:41;16.53;;;11.30;;
3066;SDS011;1544;48.834;9.194;2024-02-28T13:49:18;19.50;;;12.40;;
3066;SDS011;1544;48.834;9.194;2024-02-28T13:51:55;18.43;;;14.00;;
3066;SDS011;1544;48.834;9.194;2024-02-28T13:54:31;18.73;;;12.63;;
3066;SDS011;1544;48.834;9.194;2024-02-28T13:57:07;20.40;;;12.30;;
3066;SDS011;1544;48.834;9.194;2024-02-28T13:59:46;22.03;;;13.23;;
3066;SDS011;1544;48.834;9.194;2024-02-28T14:02:24;18.60;;;11.10;;
3066;SDS011;1544;48.834;9.194;2024-02-28T14:05:02;16.13;;;10.23;;
3066;SDS011;1544;48.834;9.194;2024-02-28T14:07:38;17.20;;;10.93;;
3066;SDS011;1544;48.834;9.194;2024-02-28T14:10:15;20.03;;;13.53;;
3066;SDS011;1544;48.834;9.194;2024-02-28T14:12:51;21.10;;;12.67;;
3066;SDS011;1544;48.834;9.194;2024-02-28T14:15:28;15.73;;;10.47;;
3066;SDS011;1544;48.834;9.194;2024-02-28T14:18:04;15.20;;;10.33;;
3066;SDS011;1544;48.834;9.194;2024-02-28T14:20:40;15.40;;;9.93;;
3066;SDS011;1544;48.834;9.194;2024-02-28T14:23:17;16.10;;;11.07;;
3066;SDS011;1544;48.834;9.194;2024-02-28T14:25:53;15.23;;;10.03;;
3066;SDS011;1544;48.834;9.194;2024-02-28T14:28:29;17.27;;;10.07;;
3066;SDS011;1544;48.834;9.194;2024-02-28T14:31:05;16.07;;;10.30;;
3066;SDS011;1544;48.834;9.194;2024-02-28T14:33:42;15.43;;;9.80;;
3066;SDS011;1544;48.834;9.194;2024-02-28T14:36:18;13.17;;;9.30;;
3066;SDS011;1544;48.834;9.194;2024-02-28T14:38:57;10.77;;;8.13;;
3066;SDS011;1544;48.834;9.194;2024-02-28T14:41:33;14.73;;;10.10;;
3066;SDS011;1544;48.834;9.194;2024-02-28T14:44:10;16.27;;;9.83;;
3066;SDS011;1544;48.834;9.194;2024-02-28T14:46:46;12.20;;;8.90;;
3066;SDS011;1544;48.834;9.194;2024-02-28T14:49:22;14.63;;;9.73;;
3066;SDS011;1544;48.834;9.194;2024-02-28T14:51:58;15.03;;;10.00;;
3066;SDS011;1544;48.834;9.194;2024-02-28T14:54:35;16.07;;;10.27;;
3066;SDS011;1544;48.834;9.194;2024-02-28T14:57:11;14.70;;;9.63;;
3066;SDS011;1544;48.834;9.194;2024-02-28T14:59:47;16.43;;;9.40;;
3066;SDS011;1544;48.834;9.194;2024-02-28T15:02:23;13.33;;;9.47;;
3066;SDS011;1544;48.834;9.194;2024-02-28T15:04:59;14.90;;;9.53;;
3066;SDS011;1544;48.834;9.194;2024-02-28T15:07:35;15.40;;;8.93;;
3066;SDS011;1544;48.834;9.194;2024-02-28T15:10:12;15.57;;;10.40;;
3066;SDS011;1544;48.834;9.194;2024-02-28T15:12:49;15.93;;;9.80;;
3066;SDS011;1544;48.834;9.194;2024-02-28T15:15:25;16.43;;;10.43;;
3066;SDS011;1544;48.834;9.194;2024-02-28T15:18:03;12.23;;;8.47;;
3066;SDS011;1544;48.834;9.194;2024-02-28T15:20:39;15.43;;;9.97;;
3066;SDS011;1544;48.834;9.194;2024-02-28T15:23:16;15.60;;;10.00;;
3066;SDS011;1544;48.834;9.194;2024-02-28T15:25:52;16.30;;;10.80;;
3066;SDS011;1544;48.834;9.194;2024-02-28T15:28:29;17.00;;;10.67;;
3066;SDS011;1544;48.834;9.194;2024-02-28T15:31:06;15.23;;;9.90;;
3066;SDS011;1544;48.834;9.194;2024-02-28T15:33:42;14.10;;;9.50;;
3066;SDS011;1544;48.834;9.194;2024-02-28T15:36:18;17.90;;;11.23;;
3066;SDS011;1544;48.834;9.194;2024-02-28T15:38:54;12.17;;;9.10;;
3066;SDS011;1544;48.834;9.194;2024-02-28T15:41:30;14.27;;;10.63;;
3066;SDS011;1544;48.834;9.194;2024-02-28T15:44:07;17.67;;;11.60;;